createdAt,value
2022-08-07T00:00:51.542Z,20.40
2022-08-07T00:03:18.235Z,20.20
2022-08-07T00:05:45.330Z,20.20
2022-08-07T00:08:14.506Z,20.20
2022-08-07T00:10:48.153Z,20.10
2022-08-07T00:13:25.779Z,20.10
2022-08-07T00:15:54.785Z,20.00
2022-08-07T00:18:26.501Z,20.10
2022-08-07T00:21:01.740Z,20.10
2022-08-07T00:23:35.001Z,20.10
2022-08-07T00:26:18.532Z,20.00
2022-08-07T00:28:56.576Z,20.00
2022-08-07T00:31:25.986Z,20.00
2022-08-07T00:34:05.256Z,20.00
2022-08-07T00:36:35.901Z,20.00
2022-08-07T00:39:05.503Z,20.00
2022-08-07T00:41:33.654Z,20.00
2022-08-07T00:44:11.937Z,19.90
2022-08-07T00:46:41.812Z,19.90
2022-08-07T00:49:10.429Z,19.90
2022-08-07T00:51:58.515Z,19.80
2022-08-07T00:54:25.616Z,19.80
2022-08-07T00:56:52.422Z,19.80
2022-08-07T00:59:35.825Z,19.80
2022-08-07T01:02:13.910Z,19.60
2022-08-07T01:04:54.166Z,19.50
2022-08-07T01:07:25.289Z,19.60
2022-08-07T01:10:06.578Z,19.50
2022-08-07T01:12:53.175Z,19.40
2022-08-07T01:15:22.009Z,19.50
2022-08-07T01:17:48.864Z,19.40
2022-08-07T01:20:17.275Z,19.40
2022-08-07T01:22:54.074Z,19.40
2022-08-07T01:25:53.885Z,19.30
2022-08-07T01:28:19.834Z,19.30
2022-08-07T01:30:47.248Z,19.20
2022-08-07T01:33:18.080Z,19.20
2022-08-07T01:35:53.310Z,19.20
2022-08-07T01:38:25.229Z,19.10
2022-08-07T01:41:00.908Z,19.20
2022-08-07T01:43:34.805Z,19.10
2022-08-07T01:46:05.545Z,19.10
2022-08-07T01:48:35.324Z,19.10
2022-08-07T01:52:02.051Z,19.10
2022-08-07T01:54:09.591Z,19.10
2022-08-07T01:57:03.825Z,19.00
2022-08-07T01:59:43.887Z,19.00
2022-08-07T02:03:11.251Z,19.10
2022-08-07T02:05:43.042Z,19.00
2022-08-07T02:08:09.238Z,18.90
2022-08-07T02:10:37.585Z,18.90
2022-08-07T02:13:10.731Z,18.90
2022-08-07T02:15:39.922Z,18.90
2022-08-07T02:18:12.596Z,18.90
2022-08-07T02:20:42.021Z,18.80
2022-08-07T02:23:16.549Z,18.80
2022-08-07T02:26:30.835Z,18.80
2022-08-07T02:28:41.045Z,18.70
2022-08-07T02:31:10.247Z,18.70
2022-08-07T02:34:04.083Z,18.70
2022-08-07T02:36:39.345Z,18.70
2022-08-07T02:39:16.265Z,18.60
2022-08-07T02:41:50.788Z,18.60
2022-08-07T02:44:23.723Z,18.60
2022-08-07T02:46:56.223Z,18.70
2022-08-07T02:49:29.197Z,18.60
2022-08-07T02:52:17.248Z,18.60
2022-08-07T02:54:50.564Z,18.60
2022-08-07T02:57:22.137Z,18.50
2022-08-07T02:59:54.980Z,18.50
2022-08-07T03:02:27.871Z,18.40
2022-08-07T03:04:56.340Z,18.50
2022-08-07T03:08:04.887Z,18.50
2022-08-07T03:10:14.281Z,18.40
2022-08-07T03:12:42.204Z,18.50
2022-08-07T03:15:10.757Z,18.40
2022-08-07T03:17:54.093Z,18.40
2022-08-07T03:20:22.140Z,18.40
2022-08-07T03:22:50.540Z,18.30
2022-08-07T03:25:21.113Z,18.40
2022-08-07T03:28:09.034Z,18.40
2022-08-07T03:30:37.424Z,18.30
2022-08-07T03:33:08.551Z,18.30
2022-08-07T03:35:43.807Z,18.20
2022-08-07T03:38:21.085Z,18.20
2022-08-07T03:40:57.162Z,18.20
2022-08-07T03:43:26.669Z,18.20
2022-08-07T03:45:59.604Z,18.20
2022-08-07T03:48:26.913Z,18.10
2022-08-07T03:50:57.959Z,18.20
2022-08-07T03:54:00.595Z,18.20
2022-08-07T03:56:14.249Z,18.20
2022-08-07T03:59:07.914Z,18.20
2022-08-07T04:01:32.248Z,18.20
2022-08-07T04:04:00.028Z,18.20
2022-08-07T04:06:37.500Z,18.10
2022-08-07T04:09:06.451Z,18.10
2022-08-07T04:12:27.782Z,18.00
2022-08-07T04:14:38.592Z,18.00
2022-08-07T04:17:19.832Z,18.00
2022-08-07T04:19:52.346Z,18.00
2022-08-07T04:22:29.318Z,18.00
2022-08-07T04:25:01.438Z,18.00
2022-08-07T04:27:35.727Z,17.90
2022-08-07T04:30:11.813Z,17.90
2022-08-07T04:32:48.450Z,17.90
2022-08-07T04:35:25.270Z,17.90
2022-08-07T04:38:03.447Z,17.70
2022-08-07T04:40:34.856Z,17.80
2022-08-07T04:43:03.286Z,17.70
2022-08-07T04:46:00.930Z,17.70
2022-08-07T04:49:02.167Z,17.70
2022-08-07T04:51:57.942Z,17.90
2022-08-07T04:54:34.580Z,17.90
2022-08-07T04:58:10.890Z,17.90
2022-08-07T05:00:12.441Z,17.90
2022-08-07T05:04:00.500Z,18.00
2022-08-07T05:06:19.733Z,18.10
2022-08-07T05:09:08.325Z,18.00
2022-08-07T05:11:57.006Z,18.30
2022-08-07T05:14:55.987Z,18.50
2022-08-07T05:17:52.231Z,18.50
2022-08-07T05:20:11.218Z,18.60
2022-08-07T05:22:41.444Z,18.70
2022-08-07T05:25:11.844Z,18.80
2022-08-07T05:28:16.014Z,18.90
2022-08-07T05:30:47.114Z,18.90
2022-08-07T05:33:15.595Z,18.90
2022-08-07T05:35:45.937Z,18.90
2022-08-07T05:39:00.143Z,18.80
2022-08-07T05:41:12.266Z,18.70
2022-08-07T05:44:08.060Z,18.50
2022-08-07T05:46:31.083Z,18.60
2022-08-07T05:48:59.745Z,18.60
2022-08-07T05:51:31.590Z,18.60
2022-08-07T05:54:13.621Z,18.50
2022-08-07T05:56:51.290Z,18.40
2022-08-07T05:59:19.640Z,18.60
2022-08-07T06:01:49.213Z,18.60
2022-08-07T06:04:18.964Z,18.60
2022-08-07T06:06:47.639Z,18.60
2022-08-07T06:09:23.443Z,18.40
2022-08-07T06:12:10.387Z,18.40
2022-08-07T06:14:39.518Z,18.50
2022-08-07T06:17:08.304Z,18.50
2022-08-07T06:19:52.232Z,18.40
2022-08-07T06:22:27.377Z,18.30
2022-08-07T06:24:58.402Z,18.40
2022-08-07T06:27:44.481Z,18.50
2022-08-07T06:30:32.021Z,18.40
2022-08-07T06:33:02.305Z,18.40
2022-08-07T06:35:45.893Z,18.30
2022-08-07T06:38:20.074Z,18.20
2022-08-07T06:40:51.124Z,18.20
2022-08-07T06:43:22.580Z,18.30
2022-08-07T06:45:50.863Z,18.30
2022-08-07T06:48:25.102Z,18.20
2022-08-07T06:50:54.261Z,18.20
2022-08-07T06:55:29.492Z,18.20
2022-08-07T06:56:15.490Z,18.20
2022-08-07T07:00:12.144Z,18.20
2022-08-07T07:01:33.291Z,18.20
2022-08-07T07:04:28.007Z,18.10
2022-08-07T07:07:01.254Z,18.20
2022-08-07T07:09:31.656Z,18.20
2022-08-07T07:12:18.074Z,18.20
2022-08-07T07:14:53.067Z,18.20
2022-08-07T07:17:38.757Z,18.30
2022-08-07T07:20:14.994Z,18.30
2022-08-07T07:24:11.190Z,18.40
2022-08-07T07:26:35.368Z,18.40
2022-08-07T07:28:42.176Z,18.40
2022-08-07T07:31:21.618Z,18.60
2022-08-07T07:33:57.081Z,18.50
2022-08-07T07:36:32.357Z,18.50
2022-08-07T07:39:02.342Z,18.50
2022-08-07T07:41:30.894Z,18.60
2022-08-07T07:44:16.746Z,18.50
2022-08-07T07:46:56.072Z,18.50
2022-08-07T07:50:33.945Z,18.60
2022-08-07T07:52:16.401Z,18.70
2022-08-07T07:54:51.351Z,18.80
2022-08-07T07:57:52.585Z,18.90
2022-08-07T08:00:12.191Z,19.00
2022-08-07T08:03:05.819Z,19.10
2022-08-07T08:05:50.885Z,19.10
2022-08-07T08:08:34.463Z,19.20
2022-08-07T08:11:16.064Z,19.20
2022-08-07T08:13:53.951Z,19.30
2022-08-07T08:16:29.664Z,19.30
2022-08-07T08:18:58.282Z,19.40
2022-08-07T08:21:55.400Z,19.50
2022-08-07T08:24:47.940Z,19.60
2022-08-07T08:27:33.495Z,19.60
2022-08-07T08:30:09.368Z,19.60
2022-08-07T08:32:49.897Z,19.70
2022-08-07T08:35:23.627Z,19.80
2022-08-07T08:38:04.682Z,19.90
2022-08-07T08:40:35.822Z,19.90
2022-08-07T08:43:05.470Z,19.90
2022-08-07T08:45:42.055Z,19.90
2022-08-07T08:48:50.997Z,20.00
2022-08-07T08:52:00.859Z,20.10
2022-08-07T08:54:44.874Z,20.10
2022-08-07T08:57:30.310Z,20.20
2022-08-07T09:00:11.759Z,20.20
2022-08-07T09:02:52.527Z,20.30
2022-08-07T09:05:45.559Z,20.30
2022-08-07T09:08:48.081Z,20.40
2022-08-07T09:11:51.188Z,20.40
2022-08-07T09:14:35.822Z,20.50
2022-08-07T09:17:21.843Z,20.60
2022-08-07T09:19:57.383Z,20.70
2022-08-07T09:24:31.316Z,20.80
2022-08-07T09:26:09.441Z,20.90
2022-08-07T09:30:05.753Z,20.90
2022-08-07T09:31:39.032Z,21.00
2022-08-07T09:34:22.417Z,21.10
2022-08-07T09:37:33.340Z,21.10
2022-08-07T09:40:24.158Z,21.20
2022-08-07T09:43:03.427Z,21.30
2022-08-07T09:47:24.852Z,21.40
2022-08-07T09:49:59.444Z,21.50
2022-08-07T09:52:33.671Z,21.50
2022-08-07T09:55:29.804Z,21.60
2022-08-07T09:58:18.511Z,21.60
2022-08-07T10:01:01.092Z,21.80
2022-08-07T10:04:05.570Z,21.80
2022-08-07T10:06:55.512Z,21.90
2022-08-07T10:10:00.739Z,22.10
2022-08-07T10:12:53.096Z,22.10
2022-08-07T10:15:44.426Z,22.20
2022-08-07T10:18:36.283Z,22.20
2022-08-07T10:21:51.132Z,22.30
2022-08-07T10:24:39.635Z,22.40
2022-08-07T10:27:46.793Z,22.40
2022-08-07T10:30:18.758Z,22.50
2022-08-07T10:33:03.195Z,22.50
2022-08-07T10:35:55.919Z,22.60
2022-08-07T10:38:48.000Z,22.60
2022-08-07T10:41:47.454Z,22.80
2022-08-07T10:44:39.175Z,22.70
2022-08-07T10:47:51.432Z,22.90
2022-08-07T10:50:26.687Z,22.90
2022-08-07T10:52:57.421Z,23.00
2022-08-07T10:55:38.435Z,23.00
2022-08-07T10:58:36.638Z,23.20
2022-08-07T11:01:24.969Z,23.20
2022-08-07T11:04:23.160Z,23.20
2022-08-07T11:08:00.725Z,23.20
2022-08-07T11:10:29.753Z,23.30
2022-08-07T11:13:16.852Z,23.50
2022-08-07T11:16:07.356Z,23.60
2022-08-07T11:18:41.187Z,23.80
2022-08-07T11:21:19.848Z,23.90
2022-08-07T11:23:56.769Z,23.90
2022-08-07T11:26:50.370Z,24.00
2022-08-07T11:29:41.111Z,24.00
2022-08-07T11:32:26.149Z,24.00
2022-08-07T11:35:09.398Z,24.10
2022-08-07T11:37:58.497Z,24.20
2022-08-07T11:40:58.118Z,24.10
2022-08-07T11:43:54.240Z,24.20
2022-08-07T11:46:34.274Z,24.20
2022-08-07T11:49:50.316Z,24.30
2022-08-07T11:52:37.691Z,24.30
2022-08-07T11:56:15.503Z,24.40
2022-08-07T11:58:33.543Z,24.50
2022-08-07T12:01:22.042Z,24.40
2022-08-07T12:04:17.253Z,24.50
2022-08-07T12:06:51.667Z,24.60
2022-08-07T12:09:48.697Z,24.70
2022-08-07T12:12:30.266Z,24.80
2022-08-07T12:15:03.715Z,24.80
2022-08-07T12:17:59.309Z,24.90
2022-08-07T12:20:44.860Z,24.90
2022-08-07T12:24:05.893Z,24.80
2022-08-07T12:26:46.388Z,24.80
2022-08-07T12:29:37.799Z,25.00
2022-08-07T12:32:31.018Z,25.00
2022-08-07T12:34:59.155Z,25.10
2022-08-07T12:38:09.486Z,25.10
2022-08-07T12:40:47.780Z,25.10
2022-08-07T12:43:58.766Z,25.20
2022-08-07T12:46:26.245Z,25.20
2022-08-07T12:49:25.784Z,25.30
2022-08-07T12:52:17.920Z,25.40
2022-08-07T12:55:05.387Z,25.40
2022-08-07T12:58:00.954Z,25.30
2022-08-07T13:00:50.099Z,25.50
2022-08-07T13:04:02.188Z,25.60
2022-08-07T13:07:00.551Z,25.60
2022-08-07T13:10:19.372Z,25.50
2022-08-07T13:12:54.167Z,25.70
2022-08-07T13:15:33.513Z,25.70
2022-08-07T13:18:26.106Z,25.70
2022-08-07T13:21:10.771Z,25.80
2022-08-07T13:24:07.002Z,25.80
2022-08-07T13:26:46.965Z,25.80
2022-08-07T13:30:03.623Z,25.90
2022-08-07T13:32:45.974Z,25.90
2022-08-07T13:36:00.468Z,26.10
2022-08-07T13:38:42.132Z,26.10
2022-08-07T13:41:35.077Z,26.10
2022-08-07T13:44:10.341Z,26.20
2022-08-07T13:46:49.233Z,26.30
2022-08-07T13:50:34.376Z,26.50
2022-08-07T13:52:27.128Z,26.60
2022-08-07T13:54:57.212Z,26.60
2022-08-07T13:57:32.277Z,26.60
2022-08-07T14:00:07.787Z,26.60
2022-08-07T14:02:45.762Z,26.50
2022-08-07T14:05:22.851Z,26.50
2022-08-07T14:08:00.788Z,26.60
2022-08-07T14:10:42.079Z,26.60
2022-08-07T14:13:16.556Z,26.80
2022-08-07T14:15:53.134Z,26.90
2022-08-07T14:18:30.608Z,26.90
2022-08-07T14:22:01.070Z,26.90
2022-08-07T14:24:15.309Z,26.80
2022-08-07T14:26:54.566Z,26.70
2022-08-07T14:30:05.084Z,26.70
2022-08-07T14:32:19.222Z,26.70
2022-08-07T14:34:48.033Z,26.90
2022-08-07T14:37:19.057Z,27.00
2022-08-07T14:40:15.466Z,27.20
2022-08-07T14:42:35.670Z,27.20
2022-08-07T14:45:47.102Z,27.20
2022-08-07T14:48:20.953Z,27.20
2022-08-07T14:50:53.938Z,27.30
2022-08-07T14:54:08.911Z,27.30
2022-08-07T14:56:13.176Z,27.30
2022-08-07T14:58:45.196Z,27.20
2022-08-07T15:01:22.031Z,27.20
2022-08-07T15:06:39.933Z,27.00
2022-08-07T15:15:21.275Z,27.20
2022-08-07T15:17:58.120Z,27.30
2022-08-07T15:20:54.770Z,27.20
2022-08-07T15:25:02.950Z,27.10
2022-08-07T15:26:21.275Z,27.10
2022-08-07T15:28:59.633Z,27.20
2022-08-07T15:32:00.571Z,27.10
2022-08-07T15:34:32.868Z,27.20
2022-08-07T15:37:08.151Z,27.30
2022-08-07T15:39:57.740Z,27.30
2022-08-07T15:42:47.827Z,27.40
2022-08-07T15:45:55.716Z,27.30
2022-08-07T15:48:30.731Z,27.40
2022-08-07T15:51:09.869Z,27.30
2022-08-07T15:53:52.918Z,27.40
2022-08-07T15:56:29.413Z,27.40
2022-08-07T15:59:03.761Z,27.40
2022-08-07T16:01:39.249Z,27.30
2022-08-07T16:04:15.357Z,27.30
2022-08-07T16:06:54.262Z,27.30
2022-08-07T16:09:54.024Z,27.30
2022-08-07T16:13:05.431Z,27.40
2022-08-07T16:16:06.859Z,27.40
2022-08-07T16:19:15.836Z,27.30
2022-08-07T16:22:08.898Z,27.30
2022-08-07T16:24:56.754Z,27.30
2022-08-07T16:27:39.952Z,27.30
2022-08-07T16:30:29.181Z,27.30
2022-08-07T16:34:02.320Z,27.30
2022-08-07T16:36:20.749Z,27.30
2022-08-07T16:39:33.465Z,27.30
2022-08-07T16:42:34.281Z,27.20
2022-08-07T16:48:27.757Z,27.10
2022-08-07T16:51:54.150Z,27.00
2022-08-07T16:54:54.175Z,26.90
2022-08-07T16:58:01.701Z,26.90
2022-08-07T17:00:30.179Z,26.90
2022-08-07T17:03:07.027Z,26.90
2022-08-07T17:06:29.109Z,26.90
2022-08-07T17:10:06.620Z,26.90
2022-08-07T17:12:34.292Z,26.90
2022-08-07T17:15:43.761Z,26.90
2022-08-07T17:18:23.764Z,26.90
2022-08-07T17:20:54.843Z,26.90
2022-08-07T17:23:46.998Z,26.90
2022-08-07T17:26:48.212Z,26.80
2022-08-07T17:30:14.010Z,26.70
2022-08-07T17:32:30.883Z,26.70
2022-08-07T17:35:50.480Z,26.60
2022-08-07T17:38:32.990Z,26.60
2022-08-07T17:42:01.628Z,26.50
2022-08-07T17:44:51.687Z,26.50
2022-08-07T17:47:42.653Z,26.40
2022-08-07T17:50:19.687Z,26.40
2022-08-07T17:53:55.705Z,26.30
2022-08-07T17:56:06.669Z,26.30
2022-08-07T17:58:46.133Z,26.30
2022-08-07T18:01:56.714Z,26.20
2022-08-07T18:04:31.031Z,26.20
2022-08-07T18:07:28.529Z,26.10
2022-08-07T18:10:32.212Z,26.00
2022-08-07T18:13:09.782Z,26.00
2022-08-07T18:15:55.004Z,26.00
2022-08-07T18:18:46.807Z,25.90
2022-08-07T18:22:00.498Z,25.90
2022-08-07T18:24:34.470Z,25.90
2022-08-07T18:27:22.833Z,25.80
2022-08-07T18:30:07.092Z,25.80
2022-08-07T18:33:19.164Z,25.80
2022-08-07T18:36:08.106Z,25.70
2022-08-07T18:39:00.500Z,25.70
2022-08-07T18:42:12.800Z,25.60
2022-08-07T18:45:44.736Z,25.50
2022-08-07T18:48:00.863Z,25.40
2022-08-07T18:50:45.511Z,25.30
2022-08-07T18:53:39.776Z,25.30
2022-08-07T18:56:40.713Z,25.20
2022-08-07T19:00:32.827Z,25.10
2022-08-07T19:03:02.687Z,25.00
2022-08-07T19:06:02.202Z,24.90
2022-08-07T19:08:33.815Z,24.80
2022-08-07T19:11:35.256Z,24.70
2022-08-07T19:14:20.220Z,24.60
2022-08-07T19:17:05.429Z,24.60
2022-08-07T19:19:58.543Z,24.50
2022-08-07T19:23:00.809Z,24.40
2022-08-07T19:26:23.882Z,24.40
2022-08-07T19:30:57.526Z,24.20
2022-08-07T19:32:02.354Z,24.20
2022-08-07T19:34:34.384Z,24.20
2022-08-07T19:37:09.815Z,24.10
2022-08-07T19:39:57.468Z,24.00
2022-08-07T19:42:30.843Z,24.00
2022-08-07T19:45:09.283Z,23.80
2022-08-07T19:47:38.580Z,23.80
2022-08-07T19:50:44.510Z,23.70
2022-08-07T19:52:58.666Z,23.70
2022-08-07T19:55:57.308Z,23.70
2022-08-07T19:58:18.295Z,23.50
2022-08-07T20:00:54.268Z,23.50
2022-08-07T20:03:34.937Z,23.40
2022-08-07T20:06:04.843Z,23.40
2022-08-07T20:08:39.863Z,23.30
2022-08-07T20:11:34.309Z,23.30
2022-08-07T20:14:07.268Z,23.20
2022-08-07T20:16:45.491Z,23.20
2022-08-07T20:19:13.739Z,23.10
2022-08-07T20:21:46.601Z,23.10
2022-08-07T20:24:31.411Z,23.00
2022-08-07T20:27:04.428Z,23.00
2022-08-07T20:29:56.802Z,23.00
2022-08-07T20:32:39.632Z,23.00
2022-08-07T20:35:12.342Z,23.00
2022-08-07T20:37:59.026Z,22.90
2022-08-07T20:40:33.454Z,22.90
2022-08-07T20:43:03.568Z,22.90
2022-08-07T20:46:26.123Z,22.80
2022-08-07T20:48:30.528Z,22.80
2022-08-07T20:51:02.882Z,22.70
2022-08-07T20:54:03.850Z,22.60
2022-08-07T20:56:26.206Z,22.60
2022-08-07T20:58:55.399Z,22.60
2022-08-07T21:01:23.160Z,22.50
2022-08-07T21:04:13.357Z,22.50
2022-08-07T21:06:46.668Z,22.40
2022-08-07T21:09:24.492Z,22.40
2022-08-07T21:11:57.134Z,22.40
2022-08-07T21:14:33.481Z,22.30
2022-08-07T21:18:06.189Z,22.30
2022-08-07T21:20:00.876Z,22.30
2022-08-07T21:22:39.644Z,22.20
2022-08-07T21:25:43.527Z,22.20
2022-08-07T21:28:48.406Z,22.10
2022-08-07T21:32:42.305Z,22.10
2022-08-07T21:34:45.997Z,22.10
2022-08-07T21:37:21.692Z,22.00
2022-08-07T21:39:59.448Z,22.00
2022-08-07T21:42:46.661Z,22.10
2022-08-07T21:46:10.686Z,21.90
2022-08-07T21:48:56.511Z,21.90
2022-08-07T21:51:55.863Z,21.90
2022-08-07T21:54:34.717Z,21.80
2022-08-07T21:57:31.242Z,21.70
2022-08-07T22:02:59.186Z,21.70
2022-08-07T22:05:45.508Z,21.60
2022-08-07T22:08:19.919Z,21.60
2022-08-07T22:10:54.685Z,21.60
2022-08-07T22:13:23.889Z,21.50
2022-08-07T22:16:45.744Z,21.50
2022-08-07T22:19:08.288Z,21.50
2022-08-07T22:22:04.437Z,21.50
2022-08-07T22:24:56.793Z,21.50
2022-08-07T22:28:06.400Z,21.20
2022-08-07T22:30:34.666Z,21.20
2022-08-07T22:33:15.027Z,21.20
2022-08-07T22:35:54.533Z,21.20
2022-08-07T22:38:39.045Z,21.20
2022-08-07T22:42:03.153Z,21.10
2022-08-07T22:44:29.010Z,21.10
2022-08-07T22:47:18.131Z,21.00
2022-08-07T22:50:08.048Z,21.00
2022-08-07T22:53:18.709Z,20.90
2022-08-07T22:56:08.631Z,20.80
2022-08-07T22:58:44.668Z,20.90
2022-08-07T23:01:17.256Z,20.90
2022-08-07T23:04:04.679Z,20.80
2022-08-07T23:07:30.115Z,20.80
2022-08-07T23:10:37.988Z,20.70
2022-08-07T23:14:09.130Z,20.70
2022-08-07T23:16:54.714Z,20.70
2022-08-07T23:20:09.876Z,20.60
2022-08-07T23:23:03.047Z,20.50
2022-08-07T23:25:59.519Z,20.60
2022-08-07T23:29:04.604Z,20.60
2022-08-07T23:34:19.766Z,20.60
2022-08-07T23:35:29.638Z,20.50
2022-08-07T23:38:36.893Z,20.40
2022-08-07T23:41:16.322Z,20.40
2022-08-07T23:44:12.602Z,20.30
2022-08-07T23:47:06.951Z,20.30
2022-08-07T23:49:58.293Z,20.30
2022-08-07T23:53:06.494Z,20.30
2022-08-07T23:56:05.353Z,20.20
2022-08-07T23:58:45.229Z,20.20
